createdAt,value
2023-02-15T00:01:29.320Z,20.3
2023-02-15T00:06:35.350Z,20.3
2023-02-15T00:11:41.399Z,20.3
2023-02-15T00:16:47.577Z,20.3
2023-02-15T00:21:53.511Z,20.3
2023-02-15T00:26:59.577Z,20.3
2023-02-15T00:32:05.653Z,20.3
2023-02-15T00:37:11.684Z,20.3
2023-02-15T00:42:17.737Z,20.3
2023-02-15T00:47:23.830Z,20.3
2023-02-15T00:52:29.848Z,20.3
2023-02-15T00:57:35.972Z,20.3
2023-02-15T01:02:42.012Z,20.3
2023-02-15T01:07:48.009Z,20.3
2023-02-15T01:12:54.078Z,20.2
2023-02-15T01:18:00.164Z,20.2
2023-02-15T01:23:06.194Z,20.2
2023-02-15T01:28:12.250Z,20.2
2023-02-15T01:33:18.398Z,20.2
2023-02-15T01:38:24.394Z,20.2
2023-02-15T01:43:30.437Z,20.2
2023-02-15T01:48:36.526Z,20.2
2023-02-15T01:53:42.549Z,20.2
2023-02-15T01:58:48.590Z,20.2
2023-02-15T02:03:54.682Z,20.2
2023-02-15T02:09:00.705Z,20.2
2023-02-15T02:14:06.772Z,20.2
2023-02-15T02:19:12.850Z,20.2
2023-02-15T02:24:18.863Z,20.2
2023-02-15T02:29:24.927Z,20.2
2023-02-15T02:34:31.038Z,20.2
2023-02-15T02:39:37.049Z,20.2
2023-02-15T02:44:43.112Z,20.1
2023-02-15T02:49:49.188Z,20.1
2023-02-15T02:54:55.210Z,20.1
2023-02-15T03:00:01.278Z,20.1
2023-02-15T03:05:07.386Z,20.1
2023-02-15T03:10:13.382Z,20.1
2023-02-15T03:15:19.450Z,20.1
2023-02-15T03:20:25.538Z,20.1
2023-02-15T03:25:31.560Z,20.1
2023-02-15T03:30:37.619Z,20.1
2023-02-15T03:35:43.715Z,20.1
2023-02-15T03:40:49.730Z,20.1
2023-02-15T03:45:55.948Z,20.1
2023-02-15T03:51:01.880Z,20.1
2023-02-15T03:56:07.896Z,20
2023-02-15T04:01:13.996Z,20
2023-02-15T04:06:20.034Z,20
2023-02-15T04:11:26.059Z,20
2023-02-15T04:16:32.169Z,20
2023-02-15T04:21:38.204Z,20
2023-02-15T04:26:44.249Z,19.9
2023-02-15T04:31:50.427Z,19.9
2023-02-15T04:36:56.366Z,19.9
2023-02-15T04:42:03.525Z,19.9
2023-02-15T04:47:09.574Z,19.9
2023-02-15T04:52:15.661Z,19.8
2023-02-15T04:57:21.706Z,19.8
2023-02-15T05:02:27.755Z,19.8
2023-02-15T05:07:33.842Z,19.8
2023-02-15T05:12:39.863Z,19.8
2023-02-15T05:17:45.922Z,19.8
2023-02-15T05:22:51.982Z,19.9
2023-02-15T05:27:58.026Z,20.1
2023-02-15T05:33:04.129Z,20.2
2023-02-15T05:38:10.182Z,20.3
2023-02-15T05:43:16.200Z,20.4
2023-02-15T05:48:22.271Z,20.5
2023-02-15T05:53:28.359Z,20.5
2023-02-15T05:58:34.394Z,20.5
2023-02-15T06:03:40.513Z,20.5
2023-02-15T06:08:46.520Z,20.5
2023-02-15T06:13:52.579Z,20.6
2023-02-15T06:18:58.604Z,20.6
2023-02-15T06:24:04.679Z,20.6
2023-02-15T06:29:10.726Z,20.6
2023-02-15T06:34:16.784Z,20.6
2023-02-15T06:39:22.860Z,20.6
2023-02-15T06:44:28.876Z,20.6
2023-02-15T06:49:34.940Z,20.6
2023-02-15T06:54:41.022Z,20.6
2023-02-15T06:59:47.070Z,20.6
2023-02-15T07:04:53.153Z,20.5
2023-02-15T07:09:59.181Z,20.6
2023-02-15T07:15:05.210Z,20.6
2023-02-15T07:20:11.273Z,20.6
2023-02-15T07:25:17.368Z,20.6
2023-02-15T07:35:31.299Z,20.7
2023-02-15T07:45:45.325Z,20.7
2023-02-15T07:50:51.382Z,20.7
2023-02-15T07:55:57.419Z,20.7
2023-02-15T08:01:03.537Z,20.7
2023-02-15T08:06:09.523Z,20.7
2023-02-15T08:11:15.590Z,20.7
2023-02-15T08:16:21.721Z,20.7
2023-02-15T08:21:27.710Z,20.7
2023-02-15T08:26:33.753Z,20.7
2023-02-15T08:31:39.971Z,20.7
2023-02-15T08:36:45.880Z,20.7
2023-02-15T08:41:51.926Z,20.7
2023-02-15T08:46:58.025Z,20.7
2023-02-15T08:52:04.049Z,20.7
2023-02-15T08:57:10.099Z,20.7
2023-02-15T09:02:16.178Z,20.7
2023-02-15T09:07:22.221Z,20.7
2023-02-15T09:12:28.252Z,20.7
2023-02-15T09:17:34.356Z,20.7
2023-02-15T09:22:40.394Z,20.8
2023-02-15T09:27:46.451Z,20.9
2023-02-15T09:32:52.514Z,20.9
2023-02-15T09:37:58.544Z,20.9
2023-02-15T09:43:04.597Z,21
2023-02-15T09:48:10.685Z,21.1
2023-02-15T09:53:16.716Z,21.1
2023-02-15T09:58:22.786Z,21
2023-02-15T10:03:28.869Z,20.9
2023-02-15T10:08:34.897Z,20.9
2023-02-15T10:13:40.936Z,21
2023-02-15T10:18:47.019Z,21
2023-02-15T10:23:53.065Z,21
2023-02-15T10:28:59.109Z,21
2023-02-15T10:34:05.211Z,21
2023-02-15T10:44:19.192Z,21.1
2023-02-15T10:49:25.419Z,21.1
2023-02-15T10:54:31.272Z,21.1
2023-02-15T10:59:37.344Z,21.2
2023-02-15T11:04:43.471Z,21.2
2023-02-15T11:09:49.442Z,21.2
2023-02-15T11:14:55.509Z,21.2
2023-02-15T11:20:01.605Z,21.2
2023-02-15T11:25:07.617Z,21.3
2023-02-15T11:30:13.731Z,21.3
2023-02-15T11:35:19.733Z,21.3
2023-02-15T11:40:25.821Z,21.3
2023-02-15T11:45:31.844Z,21.3
2023-02-15T11:50:37.913Z,21.3
2023-02-15T11:55:43.955Z,21.3
2023-02-15T12:00:49.998Z,21.3
2023-02-15T12:05:56.086Z,21.3
2023-02-15T12:11:02.528Z,21.3
2023-02-15T12:16:10.523Z,21.3
2023-02-15T12:21:14.258Z,21.2
2023-02-15T12:26:20.287Z,21
2023-02-15T12:31:26.467Z,20.9
2023-02-15T12:36:32.425Z,21
2023-02-15T12:41:38.463Z,21
2023-02-15T12:46:46.523Z,21
2023-02-15T12:51:50.616Z,21
2023-02-15T12:56:56.611Z,21
2023-02-15T13:02:02.754Z,21
2023-02-15T13:07:09.898Z,21
2023-02-15T13:12:15.920Z,21
2023-02-15T13:17:21.987Z,21
2023-02-15T13:22:28.143Z,21
2023-02-15T13:27:34.089Z,21
2023-02-15T13:32:40.146Z,21.1
2023-02-15T13:37:46.234Z,21.1
2023-02-15T13:42:52.263Z,21.1
2023-02-15T13:47:58.340Z,21.1
2023-02-15T13:53:04.425Z,21.2
2023-02-15T13:58:10.432Z,21.2
2023-02-15T14:03:16.485Z,21.2
2023-02-15T14:13:30.508Z,21.2
2023-02-15T14:18:36.534Z,21.1
2023-02-15T14:23:42.586Z,21.1
2023-02-15T14:28:48.649Z,21.1
2023-02-15T14:33:54.700Z,21.1
2023-02-15T14:39:00.780Z,21.1
2023-02-15T14:44:06.828Z,21.1
2023-02-15T14:49:12.889Z,21.1
2023-02-15T14:54:18.990Z,21
2023-02-15T14:59:25.033Z,21
2023-02-15T15:04:31.041Z,21
2023-02-15T15:09:37.080Z,20.9
2023-02-15T15:14:43.186Z,20.9
2023-02-15T15:19:52.400Z,20.8
2023-02-15T15:24:55.335Z,20.8
2023-02-15T15:30:01.415Z,20.7
2023-02-15T15:35:07.383Z,20.6
2023-02-15T15:40:13.424Z,20.6
2023-02-15T15:45:19.544Z,20.6
2023-02-15T15:50:25.576Z,20.5
2023-02-15T15:55:31.646Z,20.6
2023-02-15T16:00:37.718Z,20.6
2023-02-15T16:05:43.722Z,20.6
2023-02-15T16:10:49.788Z,20.6
2023-02-15T16:15:55.918Z,20.6
2023-02-15T16:21:01.881Z,20.6
2023-02-15T16:26:07.962Z,20.5
2023-02-15T16:31:14.086Z,20.5
2023-02-15T16:36:20.042Z,20.4
2023-02-15T16:41:26.117Z,20.4
2023-02-15T16:46:32.284Z,20.4
2023-02-15T16:51:38.235Z,20.4
2023-02-15T16:56:44.286Z,20.4
2023-02-15T17:01:50.594Z,20.5
2023-02-15T17:06:56.454Z,20.4
2023-02-15T17:12:02.446Z,20.4
2023-02-15T17:17:08.547Z,20.4
2023-02-15T17:22:14.573Z,20.3
2023-02-15T17:27:20.620Z,20.3
2023-02-15T17:32:26.901Z,20.3
2023-02-15T17:37:32.797Z,20.3
2023-02-15T17:42:38.797Z,20.3
2023-02-15T17:47:44.896Z,20.3
2023-02-15T17:52:50.911Z,20.3
2023-02-15T17:57:56.951Z,20.3
2023-02-15T18:03:03.056Z,20.3
2023-02-15T18:08:09.074Z,20.2
2023-02-15T18:13:15.161Z,20.2
2023-02-15T18:18:21.305Z,20.2
2023-02-15T18:23:27.275Z,20.2
2023-02-15T18:28:33.325Z,20.2
2023-02-15T18:33:39.539Z,20.2
2023-02-15T18:38:45.447Z,20.2
2023-02-15T18:43:51.487Z,20.2
2023-02-15T18:48:57.572Z,20.2
2023-02-15T18:54:03.610Z,20.2
2023-02-15T18:59:09.654Z,20.2
2023-02-15T19:04:15.732Z,20.1
2023-02-15T19:09:21.790Z,20.1
2023-02-15T19:14:27.828Z,20.1
2023-02-15T19:19:33.913Z,20.1
2023-02-15T19:24:39.958Z,20.1
2023-02-15T19:29:46.097Z,20.2
2023-02-15T19:34:52.076Z,20.2
2023-02-15T19:39:58.148Z,20.2
2023-02-15T19:45:04.172Z,20.2
2023-02-15T19:50:10.246Z,20.1
2023-02-15T19:55:16.269Z,20.1
2023-02-15T20:00:22.750Z,20.1
2023-02-15T20:05:28.690Z,20
2023-02-15T20:10:34.476Z,20
2023-02-15T20:15:40.599Z,20.1
2023-02-15T20:20:46.606Z,20.1
2023-02-15T20:25:52.645Z,20.1
2023-02-15T20:30:58.857Z,20.1
2023-02-15T20:36:04.774Z,20.1
2023-02-15T20:41:10.795Z,20.1
2023-02-15T20:46:16.911Z,20
2023-02-15T20:51:22.939Z,20
2023-02-15T20:56:28.991Z,20
2023-02-15T21:01:35.081Z,20
2023-02-15T21:06:41.129Z,20
2023-02-15T21:11:47.143Z,20
2023-02-15T21:16:53.220Z,20.1
2023-02-15T21:21:59.303Z,20.1
2023-02-15T21:27:05.307Z,20.1
2023-02-15T21:32:11.643Z,20.1
2023-02-15T21:37:17.454Z,20.1
2023-02-15T21:42:23.481Z,20
2023-02-15T21:47:29.558Z,20
2023-02-15T21:52:35.621Z,20
2023-02-15T21:57:41.663Z,20
2023-02-15T22:02:47.723Z,20
2023-02-15T22:07:53.810Z,20
2023-02-15T22:12:59.850Z,20.1
2023-02-15T22:18:05.895Z,20.1
2023-02-15T22:23:11.964Z,20
2023-02-15T22:28:17.995Z,20
2023-02-15T22:33:24.050Z,20
2023-02-15T22:38:30.120Z,19.9
2023-02-15T22:43:36.167Z,19.9
2023-02-15T22:48:42.222Z,19.9
2023-02-15T22:53:48.326Z,19.9
2023-02-15T22:58:54.337Z,20
2023-02-15T23:04:03.236Z,20
2023-02-15T23:09:06.485Z,20
2023-02-15T23:14:12.520Z,20
2023-02-15T23:19:18.567Z,20
2023-02-15T23:24:24.653Z,20
2023-02-15T23:29:30.669Z,20
2023-02-15T23:34:36.729Z,19.9
2023-02-15T23:39:42.870Z,19.9
2023-02-15T23:44:48.850Z,19.9
2023-02-15T23:49:54.908Z,19.9
2023-02-15T23:55:01.006Z,20
